Time;durP1;ratioP1;P1;durP2;ratioP2;P2;SDS_P1;SDS_P2;PMS_P1;PMS_P2;Temp;Humidity;BMP_temperature;BMP_pressure;BME280_temperature;BME280_humidity;BME280_pressure;Samples;Min_cycle;Max_cycle;Signal;HPM_P1;HPM_P2
2021/04/23 00:00:16;;;;;;;15.63;8.88;;;0.70;99.90;;;;;;5082945;28;20117;-70
2021/04/23 00:02:45;;;;;;;16.20;9.50;;;0.60;99.90;;;;;;5061903;28;20500;-71
2021/04/23 00:05:12;;;;;;;21.60;9.27;;;0.50;99.90;;;;;;5078249;28;20116;-71
2021/04/23 00:07:38;;;;;;;20.85;9.82;;;0.40;99.90;;;;;;5049220;28;20148;-70
2021/04/23 00:10:09;;;;;;;15.02;8.00;;;0.40;99.90;;;;;;5048151;28;20048;-70
2021/04/23 00:12:36;;;;;;;20.88;8.93;;;0.40;99.90;;;;;;5074685;28;20063;-70
2021/04/23 00:15:03;;;;;;;26.27;9.52;;;0.40;99.90;;;;;;5074424;28;20772;-70
2021/04/23 00:17:29;;;;;;;22.05;10.20;;;0.60;99.90;;;;;;5075313;28;20051;-71
2021/04/23 00:19:56;;;;;;;34.90;9.63;;;0.60;99.90;;;;;;5062620;28;20045;-71
2021/04/23 00:22:22;;;;;;;20.63;9.13;;;0.50;99.90;;;;;;5068251;28;20057;-71
2021/04/23 00:24:48;;;;;;;18.35;9.15;;;0.40;99.90;;;;;;5067481;28;20048;-71
2021/04/23 00:27:14;;;;;;;16.95;9.15;;;0.40;99.90;;;;;;5067239;28;20285;-70
2021/04/23 00:29:41;;;;;;;25.52;9.25;;;0.30;99.90;;;;;;5067651;28;20056;-70
2021/04/23 00:34:53;;;;;;;18.90;8.82;;;0.30;99.90;;;;;;5116484;27;20138;-69
2021/04/23 00:37:19;;;;;;;23.30;8.77;;;0.40;99.90;;;;;;5056946;28;20047;-69
2021/04/23 00:39:45;;;;;;;25.95;9.10;;;0.30;99.90;;;;;;5067882;28;20053;-70
2021/04/23 00:42:12;;;;;;;26.77;10.30;;;0.40;99.90;;;;;;5066285;28;20135;-70
2021/04/23 00:44:38;;;;;;;14.63;8.60;;;0.30;99.90;;;;;;5067223;28;20501;-71
2021/04/23 00:47:05;;;;;;;23.33;8.73;;;0.40;99.90;;;;;;5108130;27;20059;-70
2021/04/23 00:49:32;;;;;;;26.83;8.63;;;0.30;99.90;;;;;;5070043;28;20044;-70
2021/04/23 00:52:01;;;;;;;23.48;9.85;;;0.20;99.90;;;;;;5066220;28;20058;-70
2021/04/23 00:54:29;;;;;;;22.20;8.68;;;0.20;99.90;;;;;;5049491;28;20112;-70
2021/04/23 00:56:56;;;;;;;17.92;9.07;;;0.20;99.90;;;;;;5065987;28;20729;-70
2021/04/23 00:59:23;;;;;;;17.23;8.35;;;0.10;99.90;;;;;;5066755;28;20402;-71
2021/04/23 01:01:59;;;;;;;16.75;7.90;;;0.00;99.90;;;;;;5064544;28;20123;-70
2021/04/23 01:04:30;;;;;;;24.38;8.07;;;-0.10;99.90;;;;;;5064570;28;20417;-70
2021/04/23 01:06:58;;;;;;;21.50;8.07;;;-0.10;99.90;;;;;;5063831;28;20140;-70
2021/04/23 01:09:27;;;;;;;28.30;9.80;;;-0.20;99.90;;;;;;5050786;28;20599;-70
2021/04/23 01:11:56;;;;;;;28.52;9.90;;;-0.10;99.90;;;;;;5050918;28;20037;-71
2021/04/23 01:14:23;;;;;;;23.63;9.82;;;-0.10;99.90;;;;;;5051590;28;20045;-70
2021/04/23 01:16:50;;;;;;;20.63;10.13;;;-0.10;99.90;;;;;;5048527;28;20132;-71
2021/04/23 01:19:20;;;;;;;23.80;9.95;;;-0.10;99.90;;;;;;5053276;28;20036;-70
2021/04/23 01:21:47;;;;;;;24.63;9.38;;;-0.10;99.90;;;;;;5065572;28;20044;-70
2021/04/23 01:24:14;;;;;;;25.45;9.73;;;-0.10;99.90;;;;;;5067437;28;20052;-71
2021/04/23 01:26:44;;;;;;;24.70;9.35;;;-0.20;99.90;;;;;;5064484;28;20500;-69
2021/04/23 01:29:13;;;;;;;24.25;9.98;;;-0.20;99.90;;;;;;5066582;28;20064;-69
2021/04/23 01:31:42;;;;;;;29.70;10.18;;;-0.20;99.90;;;;;;5065711;28;20051;-71
2021/04/23 01:34:17;;;;;;;24.58;10.38;;;-0.20;99.90;;;;;;5078047;28;20064;-69
2021/04/23 01:36:45;;;;;;;25.77;8.93;;;-0.20;99.90;;;;;;5078998;28;20046;-70
2021/04/23 01:39:15;;;;;;;30.05;9.80;;;-0.20;99.90;;;;;;5081031;28;20083;-70
2021/04/23 01:41:42;;;;;;;21.23;9.10;;;-0.10;99.90;;;;;;5079817;28;20048;-70
2021/04/23 01:44:09;;;;;;;24.02;9.85;;;-0.20;99.90;;;;;;5048608;28;20048;-70
2021/04/23 01:46:36;;;;;;;30.00;10.60;;;-0.20;99.90;;;;;;5071266;28;20055;-70
2021/04/23 01:49:12;;;;;;;19.25;9.73;;;-0.20;99.90;;;;;;5052594;28;20037;-70
2021/04/23 01:51:42;;;;;;;26.83;9.98;;;-0.30;99.90;;;;;;5065158;28;20432;-71
2021/04/23 01:54:10;;;;;;;26.70;9.80;;;-0.10;99.90;;;;;;5067255;28;20044;-71
2021/04/23 01:56:37;;;;;;;33.47;10.75;;;-0.10;99.90;;;;;;5047542;28;20055;-70
2021/04/23 01:59:05;;;;;;;22.23;10.13;;;-0.20;99.90;;;;;;5048526;28;20048;-71
2021/04/23 02:01:32;;;;;;;24.42;8.93;;;-0.30;99.90;;;;;;5048344;28;20416;-70
2021/04/23 02:03:58;;;;;;;22.83;10.02;;;-0.30;99.90;;;;;;5049324;28;20047;-70
2021/04/23 02:06:25;;;;;;;20.10;9.50;;;-0.40;99.90;;;;;;5072150;28;20047;-71
2021/04/23 02:08:52;;;;;;;24.80;9.77;;;-0.40;99.90;;;;;;5060560;28;20058;-70
2021/04/23 02:11:20;;;;;;;23.02;9.85;;;-0.50;99.90;;;;;;5073163;28;20053;-71
2021/04/23 02:13:51;;;;;;;27.92;10.63;;;-0.50;99.90;;;;;;5066916;28;20057;-70
2021/04/23 02:16:19;;;;;;;26.23;10.43;;;-0.60;99.90;;;;;;5064155;28;20055;-70
2021/04/23 02:18:46;;;;;;;30.08;10.30;;;-0.60;99.90;;;;;;5065542;28;20051;-71
2021/04/23 02:21:14;;;;;;;25.13;10.35;;;-0.70;99.90;;;;;;5066134;28;20057;-71
2021/04/23 02:23:48;;;;;;;24.65;11.25;;;-0.70;99.90;;;;;;5066280;28;20056;-69
2021/04/23 02:26:15;;;;;;;29.40;10.75;;;-0.50;99.90;;;;;;5065670;28;20782;-69
2021/04/23 02:28:43;;;;;;;26.60;11.02;;;-0.60;99.90;;;;;;5065569;28;20056;-70
2021/04/23 02:31:17;;;;;;;24.92;11.57;;;-0.60;99.90;;;;;;5064643;28;20049;-70
2021/04/23 02:33:45;;;;;;;20.70;9.60;;;-0.60;99.90;;;;;;5068368;28;20505;-70
2021/04/23 02:36:12;;;;;;;23.77;10.10;;;-0.60;99.90;;;;;;5069452;28;20052;-70
2021/04/23 02:38:38;;;;;;;21.98;9.20;;;-0.60;99.90;;;;;;5055229;28;20143;-71
2021/04/23 02:41:05;;;;;;;22.35;9.73;;;-0.40;99.90;;;;;;5066122;28;20504;-71
2021/04/23 02:43:36;;;;;;;25.80;9.93;;;-0.40;99.90;;;;;;5065069;28;20084;-70
2021/04/23 02:46:03;;;;;;;26.77;10.48;;;-0.30;99.90;;;;;;5065434;28;20422;-70
2021/04/23 02:48:34;;;;;;;22.52;10.10;;;-0.20;99.90;;;;;;5073743;28;20054;-71
2021/04/23 02:51:13;;;;;;;23.70;9.32;;;-0.30;99.90;;;;;;5057201;28;20067;-70
2021/04/23 02:53:41;;;;;;;25.67;9.50;;;-0.30;99.90;;;;;;5065618;28;20068;-71
2021/04/23 02:56:08;;;;;;;21.63;9.32;;;-0.20;99.90;;;;;;5064761;28;20048;-70
2021/04/23 02:58:35;;;;;;;23.45;10.23;;;0.00;99.90;;;;;;5065442;28;20056;-71
2021/04/23 03:01:06;;;;;;;22.80;10.88;;;0.00;99.90;;;;;;5066890;28;20044;-69
2021/04/23 03:03:32;;;;;;;21.15;9.32;;;0.00;99.90;;;;;;5068832;28;20489;-70
2021/04/23 03:05:59;;;;;;;21.58;10.23;;;0.00;99.90;;;;;;5068586;28;20044;-70
2021/04/23 03:08:26;;;;;;;21.70;10.32;;;0.20;99.90;;;;;;5081015;28;20048;-70
2021/04/23 03:11:01;;;;;;;24.98;11.52;;;0.30;99.90;;;;;;5089883;28;20546;-70
2021/04/23 03:13:28;;;;;;;29.73;10.38;;;0.40;99.90;;;;;;5089242;28;20135;-71
2021/04/23 03:15:56;;;;;;;26.85;10.15;;;0.40;99.90;;;;;;5066236;28;20044;-71
2021/04/23 03:18:24;;;;;;;21.50;9.63;;;0.30;99.90;;;;;;5075853;28;20056;-70
2021/04/23 03:20:53;;;;;;;28.48;10.65;;;0.50;99.90;;;;;;5051506;28;20416;-71
2021/04/23 03:23:19;;;;;;;27.85;10.40;;;0.60;99.90;;;;;;5067730;28;20424;-71
2021/04/23 03:25:45;;;;;;;21.45;10.40;;;0.70;99.90;;;;;;5066499;28;20063;-71
2021/04/23 03:28:12;;;;;;;23.77;10.48;;;0.60;99.90;;;;;;5051550;28;20553;-70
2021/04/23 03:30:41;;;;;;;25.52;10.80;;;0.60;99.90;;;;;;5067796;28;20052;-70
2021/04/23 03:33:09;;;;;;;27.98;9.13;;;0.50;99.90;;;;;;5069396;28;20054;-72
2021/04/23 03:35:38;;;;;;;23.35;10.63;;;0.50;99.90;;;;;;5065859;28;20059;-71
2021/04/23 03:38:08;;;;;;;26.08;10.63;;;0.60;99.90;;;;;;5069151;28;20063;-70
2021/04/23 03:40:36;;;;;;;25.88;11.90;;;0.70;99.90;;;;;;5032887;28;20508;-70
2021/04/23 03:43:04;;;;;;;25.58;11.88;;;0.70;99.90;;;;;;5060136;28;20139;-71
2021/04/23 03:45:31;;;;;;;26.80;13.50;;;0.70;99.90;;;;;;5068456;28;20059;-69
2021/04/23 03:47:57;;;;;;;39.58;17.10;;;0.80;99.90;;;;;;5067529;28;20129;-70
2021/04/23 03:50:27;;;;;;;38.42;18.02;;;0.80;99.90;;;;;;5066414;28;20048;-70
2021/04/23 03:52:55;;;;;;;38.22;15.52;;;0.80;99.90;;;;;;5069317;28;20447;-70
2021/04/23 03:55:28;;;;;;;29.90;14.57;;;1.00;99.90;;;;;;5066338;28;20056;-70
2021/04/23 03:57:54;;;;;;;31.73;15.20;;;1.00;99.90;;;;;;5068930;28;20055;-70
2021/04/23 04:00:34;;;;;;;31.08;15.88;;;1.20;99.90;;;;;;5066977;28;20040;-71
2021/04/23 04:03:01;;;;;;;28.95;13.80;;;1.10;99.90;;;;;;5067714;28;20048;-70
2021/04/23 05:50:43;;;;;;;33.60;15.25;;;3.30;99.90;;;;;;5019415;28;20042;-74
2021/04/23 05:53:09;;;;;;;34.60;15.13;;;3.30;99.90;;;;;;5043899;28;20489;-74
2021/04/23 05:55:36;;;;;;;43.88;16.83;;;3.30;99.90;;;;;;5010018;28;20061;-74
2021/04/23 05:58:04;;;;;;;38.10;17.50;;;3.40;99.90;;;;;;5020227;28;20046;-74
2021/04/23 06:00:34;;;;;;;37.50;16.77;;;3.40;99.90;;;;;;5014014;28;20042;-74
2021/04/23 06:03:02;;;;;;;46.45;18.10;;;3.50;99.90;;;;;;5025667;28;20687;-74
2021/04/23 06:05:30;;;;;;;37.42;15.70;;;3.60;99.90;;;;;;5039496;28;20067;-74
2021/04/23 06:07:59;;;;;;;40.58;15.98;;;3.60;99.90;;;;;;5020033;28;20071;-74
2021/04/23 06:10:25;;;;;;;46.38;18.02;;;3.60;99.90;;;;;;5040318;28;20132;-74
2021/04/23 06:12:52;;;;;;;36.55;15.85;;;3.60;99.90;;;;;;5044016;28;20148;-74
2021/04/23 06:15:19;;;;;;;30.58;15.93;;;3.60;99.90;;;;;;5026417;28;20041;-74
2021/04/23 06:17:45;;;;;;;37.83;17.02;;;3.70;99.90;;;;;;5035927;28;20137;-74
2021/04/23 06:20:15;;;;;;;36.97;15.55;;;3.80;99.90;;;;;;5027989;28;20056;-74
2021/04/23 06:22:42;;;;;;;36.22;15.70;;;3.80;99.90;;;;;;5027621;28;20391;-74
2021/04/23 06:25:11;;;;;;;38.38;16.40;;;3.80;99.90;;;;;;5007574;28;20064;-73
2021/04/23 06:27:39;;;;;;;40.65;16.48;;;3.80;99.90;;;;;;5025650;28;20152;-74
2021/04/23 06:30:09;;;;;;;37.97;15.55;;;3.90;99.90;;;;;;5025311;28;20123;-74
2021/04/23 06:32:36;;;;;;;33.67;16.30;;;3.80;99.90;;;;;;5007821;28;20064;-74
2021/04/23 06:35:03;;;;;;;40.40;17.60;;;3.80;99.90;;;;;;5028083;28;20072;-74
2021/04/23 06:37:30;;;;;;;30.13;16.33;;;3.90;99.90;;;;;;5028510;28;20041;-75
2021/04/23 06:39:56;;;;;;;30.98;17.02;;;4.00;99.90;;;;;;5012515;28;20144;-74
2021/04/23 06:42:22;;;;;;;63.90;28.75;;;4.00;99.90;;;;;;5034344;28;20047;-74
2021/04/23 06:44:49;;;;;;;40.15;20.13;;;4.10;99.90;;;;;;5048395;28;20680;-74
2021/04/23 06:47:15;;;;;;;34.08;15.23;;;4.20;99.90;;;;;;5031561;28;20049;-74
2021/04/23 06:49:41;;;;;;;42.63;18.23;;;4.30;99.90;;;;;;5032319;28;20083;-74
2021/04/23 06:52:08;;;;;;;29.27;16.55;;;4.40;99.90;;;;;;5049028;28;20136;-75
2021/04/23 06:54:34;;;;;;;36.45;18.60;;;4.40;99.90;;;;;;5048985;28;20051;-75
2021/04/23 06:57:01;;;;;;;37.75;17.75;;;4.60;99.90;;;;;;5041370;28;20103;-75
2021/04/23 06:59:27;;;;;;;32.97;16.52;;;4.60;99.90;;;;;;5012401;28;20144;-75
2021/04/23 07:01:53;;;;;;;48.95;19.42;;;4.70;99.90;;;;;;5012159;28;20057;-75
2021/04/23 07:04:19;;;;;;;32.20;14.82;;;4.80;99.90;;;;;;5029094;28;20045;-74
2021/04/23 07:06:46;;;;;;;32.17;16.42;;;4.90;99.90;;;;;;5048102;28;20080;-75
2021/04/23 07:09:17;;;;;;;35.70;20.85;;;5.00;99.90;;;;;;5031154;28;20053;-74
2021/04/23 07:11:44;;;;;;;27.60;15.15;;;5.00;99.90;;;;;;5026737;28;20053;-75
2021/04/23 07:14:11;;;;;;;40.42;17.58;;;5.00;99.90;;;;;;5045742;28;20052;-74
2021/04/23 07:16:37;;;;;;;33.00;16.67;;;4.90;99.90;;;;;;5045617;28;20580;-75
2021/04/23 07:19:04;;;;;;;27.70;15.40;;;5.00;99.90;;;;;;5047812;28;20115;-74
2021/04/23 07:21:31;;;;;;;28.50;16.25;;;5.10;99.90;;;;;;5047884;28;20061;-75
2021/04/23 07:23:58;;;;;;;29.23;16.27;;;5.00;99.90;;;;;;5031349;28;20723;-75
2021/04/23 07:26:25;;;;;;;28.67;14.95;;;5.10;99.90;;;;;;5015911;28;20160;-75
2021/04/23 07:28:51;;;;;;;23.95;14.63;;;5.10;99.90;;;;;;5062381;28;20906;-74
2021/04/23 07:31:18;;;;;;;29.20;15.52;;;5.10;99.90;;;;;;5045223;28;20102;-74
2021/04/23 07:33:45;;;;;;;31.95;16.90;;;5.10;99.90;;;;;;5046166;28;20072;-74
2021/04/23 07:36:11;;;;;;;25.05;14.15;;;5.20;99.90;;;;;;5017726;28;20077;-74
2021/04/23 07:38:38;;;;;;;31.35;15.20;;;5.20;99.90;;;;;;5036211;28;20062;-75
2021/04/23 07:41:04;;;;;;;24.20;14.48;;;5.30;99.90;;;;;;5015575;28;20053;-74
2021/04/23 07:43:30;;;;;;;27.13;14.77;;;5.30;99.90;;;;;;5032587;28;20137;-75
2021/04/23 07:46:00;;;;;;;34.40;15.43;;;5.30;99.90;;;;;;5019338;28;20080;-75
2021/04/23 07:48:27;;;;;;;24.67;15.57;;;5.40;99.90;;;;;;5031639;28;20041;-74
2021/04/23 07:50:55;;;;;;;28.13;14.05;;;5.40;99.90;;;;;;5028475;28;20279;-74
2021/04/23 07:53:21;;;;;;;23.08;13.98;;;5.50;99.90;;;;;;5025535;28;20092;-74
2021/04/23 07:55:48;;;;;;;20.95;14.35;;;5.40;99.90;;;;;;5044303;28;20496;-74
2021/04/23 07:58:14;;;;;;;33.80;15.65;;;5.50;99.90;;;;;;5062848;28;20045;-74
2021/04/23 08:00:41;;;;;;;25.15;15.13;;;5.60;99.90;;;;;;5054945;28;20124;-74
2021/04/23 08:03:07;;;;;;;23.55;14.43;;;5.70;99.90;;;;;;5041230;28;20261;-74
2021/04/23 08:05:34;;;;;;;22.55;15.80;;;5.90;99.90;;;;;;5029143;28;20132;-74
2021/04/23 08:08:05;;;;;;;22.52;14.95;;;5.90;99.90;;;;;;4995774;28;20117;-74
2021/04/23 08:10:33;;;;;;;27.02;15.13;;;6.00;99.90;;;;;;5021843;28;20092;-74
2021/04/23 08:13:00;;;;;;;28.55;16.23;;;6.00;99.90;;;;;;5019269;28;20140;-74
2021/04/23 08:15:27;;;;;;;25.38;16.42;;;6.20;99.90;;;;;;5039318;28;20041;-74
2021/04/23 08:17:55;;;;;;;22.02;14.38;;;6.20;99.90;;;;;;5021196;28;20458;-74
2021/04/23 08:20:22;;;;;;;29.52;15.95;;;6.10;99.90;;;;;;5030558;28;20509;-74
2021/04/23 08:22:49;;;;;;;23.65;15.90;;;6.30;99.90;;;;;;5033313;28;20052;-74
2021/04/23 08:25:17;;;;;;;25.70;16.15;;;6.40;99.90;;;;;;5032318;28;20048;-74
2021/04/23 08:27:44;;;;;;;20.30;15.85;;;6.60;99.90;;;;;;5048993;28;20052;-74
2021/04/23 08:30:12;;;;;;;20.58;15.88;;;6.70;99.90;;;;;;5049576;28;20053;-74
2021/04/23 08:32:39;;;;;;;22.27;15.82;;;6.50;99.90;;;;;;5062875;28;20061;-74
2021/04/23 08:35:08;;;;;;;26.27;17.05;;;6.40;99.90;;;;;;5057631;28;20111;-74
2021/04/23 08:37:35;;;;;;;25.35;17.23;;;6.40;99.90;;;;;;5039595;28;20048;-74
2021/04/23 08:40:04;;;;;;;27.05;16.92;;;6.40;99.90;;;;;;5048526;28;20041;-74
2021/04/23 08:42:31;;;;;;;23.83;15.45;;;6.40;99.90;;;;;;5019583;28;20065;-74
2021/04/23 08:44:59;;;;;;;21.70;14.65;;;6.40;99.90;;;;;;5027569;28;20515;-74
2021/04/23 08:47:25;;;;;;;18.92;15.10;;;6.60;99.90;;;;;;5047035;28;20643;-74
2021/04/23 08:49:56;;;;;;;22.05;15.73;;;6.40;99.90;;;;;;5040682;28;20080;-74
2021/04/23 08:52:22;;;;;;;23.13;15.57;;;6.40;99.90;;;;;;5001934;28;20057;-74
2021/04/23 08:54:48;;;;;;;24.90;15.63;;;6.50;99.90;;;;;;5001674;28;20429;-74
2021/04/23 08:57:15;;;;;;;23.80;16.45;;;6.70;99.90;;;;;;5005875;28;20137;-74
2021/04/23 08:59:41;;;;;;;23.25;16.15;;;6.90;99.90;;;;;;5006872;28;20072;-74
2021/04/23 09:02:07;;;;;;;25.38;15.43;;;6.80;99.90;;;;;;5002385;28;20738;-75
2021/04/23 09:04:34;;;;;;;20.98;15.45;;;6.80;99.90;;;;;;4997926;28;20038;-74
2021/04/23 09:07:06;;;;;;;20.30;15.13;;;6.60;99.90;;;;;;5005353;28;20045;-74
2021/04/23 09:09:35;;;;;;;26.65;15.93;;;6.80;99.90;;;;;;5027982;28;20057;-74
2021/04/23 09:12:15;;;;;;;20.92;15.50;;;6.90;99.90;;;;;;5025290;28;20049;-75
2021/04/23 09:14:42;;;;;;;19.77;15.32;;;6.90;99.90;;;;;;5025525;28;20340;-74
2021/04/23 09:17:08;;;;;;;19.13;15.90;;;7.20;99.90;;;;;;5024361;28;20607;-74
2021/04/23 09:19:36;;;;;;;23.25;16.80;;;7.30;99.90;;;;;;5007009;28;20065;-75
2021/04/23 09:22:21;;;;;;;27.10;15.55;;;7.40;99.90;;;;;;5021296;28;20525;-75
2021/04/23 09:25:17;;;;;;;24.25;15.65;;;7.50;99.90;;;;;;5036571;28;20425;-75
2021/04/23 09:27:48;;;;;;;;;;;7.40;99.90;;;;;;5019657;28;20496;-76
2021/04/23 09:30:15;;;;;;;18.83;15.38;;;7.50;99.90;;;;;;5034863;28;19927;-75
2021/04/23 09:32:42;;;;;;;19.05;15.95;;;7.60;99.90;;;;;;5021744;28;21008;-75
2021/04/23 09:35:20;;;;;;;17.33;15.30;;;7.60;99.90;;;;;;5036484;28;20156;-76
2021/04/23 09:37:59;;;;;;;21.20;15.48;;;7.80;99.90;;;;;;5012593;28;20146;-76
2021/04/23 09:40:31;;;;;;;25.67;16.75;;;7.90;99.90;;;;;;5028119;28;20055;-75
2021/04/23 09:43:01;;;;;;;25.55;16.42;;;8.00;99.90;;;;;;5046984;28;20057;-75
2021/04/23 09:45:30;;;;;;;18.13;15.63;;;8.20;99.90;;;;;;5044765;28;20048;-75
2021/04/23 09:47:57;;;;;;;16.75;14.73;;;8.30;99.90;;;;;;5043838;28;20465;-75
2021/04/23 09:50:36;;;;;;;19.67;16.83;;;8.00;99.90;;;;;;5043748;28;20135;-75
2021/04/23 09:53:05;;;;;;;18.67;16.70;;;8.20;99.90;;;;;;5006730;28;20236;-76
2021/04/23 09:55:33;;;;;;;17.80;14.90;;;8.70;99.90;;;;;;5024801;28;20055;-76
2021/04/23 09:58:02;;;;;;;20.52;14.95;;;8.90;99.90;;;;;;5025175;28;20077;-75
2021/04/23 10:00:31;;;;;;;21.25;16.25;;;8.60;99.90;;;;;;5006687;28;20484;-75
2021/04/23 10:02:59;;;;;;;21.63;16.52;;;8.60;99.90;;;;;;5007757;28;20433;-76
2021/04/23 10:05:36;;;;;;;17.50;15.55;;;9.10;99.90;;;;;;5015261;28;20025;-75
2021/04/23 10:08:08;;;;;;;23.00;17.98;;;9.50;99.90;;;;;;5038834;28;20102;-76
2021/04/23 10:10:37;;;;;;;20.80;16.45;;;9.20;99.90;;;;;;5041791;28;20049;-75
2021/04/23 10:13:09;;;;;;;18.45;16.55;;;8.70;99.90;;;;;;5024731;28;20104;-75
2021/04/23 10:15:41;;;;;;;20.98;16.88;;;8.60;99.90;;;;;;5029441;28;20053;-76
2021/04/23 10:18:13;;;;;;;22.63;17.20;;;8.60;99.90;;;;;;5038617;28;20133;-76
2021/04/23 10:20:43;;;;;;;24.92;16.88;;;8.70;99.90;;;;;;5044069;28;20467;-76
2021/04/23 10:23:13;;;;;;;19.90;15.98;;;9.30;99.90;;;;;;5008520;28;20050;-76
2021/04/23 10:25:40;;;;;;;22.98;17.77;;;9.70;99.90;;;;;;5018939;28;20079;-76
2021/04/23 10:28:10;;;;;;;17.38;15.77;;;9.90;99.90;;;;;;5044579;28;20056;-76
2021/04/23 10:30:40;;;;;;;19.73;17.10;;;10.30;99.90;;;;;;5027696;28;20148;-76
2021/04/23 10:33:13;;;;;;;18.75;16.55;;;10.50;99.90;;;;;;5034694;28;20053;-76
2021/04/23 10:35:43;;;;;;;20.98;16.75;;;10.20;99.90;;;;;;5031903;28;20114;-76
2021/04/23 10:38:32;;;;;;;20.63;18.17;;;10.30;99.90;;;;;;5052849;28;20140;-77
2021/04/23 10:41:05;;;;;;;19.67;16.27;;;10.00;99.90;;;;;;5035766;28;20060;-76
2021/04/23 10:43:33;;;;;;;19.48;16.80;;;9.70;99.90;;;;;;5030797;28;20044;-76
2021/04/23 10:46:12;;;;;;;22.52;16.63;;;9.80;99.90;;;;;;5043436;28;20107;-76
2021/04/23 10:48:46;;;;;;;19.55;17.50;;;9.90;99.90;;;;;;5044865;28;20068;-76
2021/04/23 10:51:18;;;;;;;18.07;16.30;;;9.70;99.90;;;;;;5011715;28;20743;-76
2021/04/23 10:53:51;;;;;;;18.90;16.27;;;10.00;99.90;;;;;;5027187;28;20056;-76
2021/04/23 10:56:19;;;;;;;22.38;16.67;;;10.40;99.90;;;;;;5026814;28;20239;-77
2021/04/23 10:58:46;;;;;;;19.20;17.08;;;10.70;99.90;;;;;;5043035;28;20503;-76
2021/04/23 11:01:13;;;;;;;19.40;17.52;;;10.60;99.90;;;;;;5010497;28;20146;-76
2021/04/23 11:03:44;;;;;;;19.65;16.88;;;10.70;99.90;;;;;;5027301;28;20049;-77
2021/04/23 11:06:15;;;;;;;18.27;15.73;;;10.80;99.90;;;;;;5044646;28;20045;-76
2021/04/23 11:09:00;;;;;;;20.88;18.25;;;10.90;99.90;;;;;;5034004;28;20060;-76
2021/04/23 11:11:31;;;;;;;20.67;18.45;;;11.00;99.90;;;;;;5007449;28;20656;-76
2021/04/23 11:14:19;;;;;;;20.45;17.65;;;11.10;99.90;;;;;;5024175;28;20053;-76
2021/04/23 11:16:47;;;;;;;20.98;18.17;;;11.00;99.90;;;;;;5023316;28;20053;-76
2021/04/23 11:19:20;;;;;;;20.33;18.33;;;11.00;99.90;;;;;;5037995;28;20053;-76
2021/04/23 11:21:48;;;;;;;20.95;18.98;;;11.20;99.90;;;;;;5025519;28;20044;-76
2021/04/23 11:24:26;;;;;;;21.38;19.17;;;11.30;99.90;;;;;;5047688;28;20053;-76
2021/04/23 11:26:53;;;;;;;20.92;18.65;;;11.60;99.90;;;;;;5030156;28;20045;-76
2021/04/23 11:29:31;;;;;;;20.33;18.13;;;11.60;99.90;;;;;;5031536;28;20084;-77
2021/04/23 11:32:12;;;;;;;21.35;18.38;;;11.80;99.90;;;;;;5048120;28;20128;-76
2021/04/23 11:34:44;;;;;;;20.60;18.25;;;11.60;99.90;;;;;;5033388;28;20127;-76
2021/04/23 11:37:18;;;;;;;23.08;18.15;;;11.50;99.90;;;;;;5030354;28;20126;-76
2021/04/23 11:39:54;;;;;;;20.08;17.63;;;11.20;99.90;;;;;;5038011;28;20052;-76
2021/04/23 11:42:22;;;;;;;19.77;17.90;;;11.00;99.90;;;;;;5013507;28;20037;-76
2021/04/23 11:44:55;;;;;;;20.23;18.10;;;11.30;99.90;;;;;;5033100;28;20265;-76
2021/04/23 11:47:24;;;;;;;19.50;17.42;;;11.40;99.90;;;;;;5038022;28;20139;-76
2021/04/23 11:50:01;;;;;;;19.95;17.20;;;11.70;99.90;;;;;;5047141;28;20462;-77
2021/04/23 11:52:29;;;;;;;21.17;17.38;;;11.80;99.90;;;;;;4996276;28;20162;-76
2021/04/23 11:54:55;;;;;;;18.83;16.95;;;11.60;99.90;;;;;;5034873;28;20187;-76
2021/04/23 11:57:28;;;;;;;20.88;18.65;;;11.70;99.90;;;;;;5046026;28;20053;-77
2021/04/23 12:00:04;;;;;;;20.02;17.70;;;11.70;99.90;;;;;;5047426;28;20080;-76
2021/04/23 12:02:43;;;;;;;31.20;17.90;;;12.00;99.90;;;;;;5048824;28;20147;-76
2021/04/23 12:05:24;;;;;;;18.25;16.30;;;11.70;99.90;;;;;;5028205;28;21702;-76
2021/04/23 12:07:52;;;;;;;19.70;17.00;;;11.80;99.90;;;;;;5040293;28;20140;-76
2021/04/23 12:10:21;;;;;;;25.35;18.55;;;12.20;99.90;;;;;;5036826;28;20033;-76
2021/04/23 12:12:48;;;;;;;21.58;18.65;;;12.40;99.90;;;;;;5032043;28;20056;-76
2021/04/23 12:15:24;;;;;;;23.73;18.92;;;12.10;99.90;;;;;;5025956;28;20098;-76
2021/04/23 12:17:52;;;;;;;29.75;20.40;;;12.30;99.90;;;;;;5033484;28;20053;-76
2021/04/23 12:20:38;;;;;;;21.27;19.02;;;12.60;99.90;;;;;;5041824;28;20574;-76
2021/04/23 12:23:06;;;;;;;20.75;18.60;;;12.80;99.90;;;;;;5022422;28;20339;-77
2021/04/23 12:25:58;;;;;;;20.75;18.55;;;12.60;99.90;;;;;;5042435;28;20420;-76
2021/04/23 12:28:37;;;;;;;24.13;19.75;;;12.60;99.90;;;;;;5030032;28;20059;-76
2021/04/23 12:31:20;;;;;;;24.55;18.38;;;12.30;99.90;;;;;;5046446;28;20084;-76
2021/04/23 12:33:54;;;;;;;20.48;18.35;;;12.40;99.90;;;;;;5006374;28;20041;-76
2021/04/23 12:36:27;;;;;;;20.73;18.58;;;12.50;99.90;;;;;;5010607;28;20458;-76
2021/04/23 12:38:54;;;;;;;21.17;18.42;;;12.60;99.90;;;;;;5001660;28;20046;-77
2021/04/23 12:41:30;;;;;;;19.35;17.50;;;12.80;99.90;;;;;;5014970;28;20522;-76
2021/04/23 12:44:04;;;;;;;22.73;19.67;;;13.00;99.90;;;;;;5009051;28;20049;-77
2021/04/23 12:46:37;;;;;;;19.05;17.35;;;13.10;99.90;;;;;;4987371;28;20072;-77
2021/04/23 12:49:17;;;;;;;19.88;17.58;;;13.20;99.90;;;;;;4999468;28;20114;-77
2021/04/23 12:51:43;;;;;;;24.80;17.98;;;13.20;99.90;;;;;;5018626;28;20053;-76
2021/04/23 12:54:11;;;;;;;20.00;18.00;;;13.10;99.90;;;;;;5038676;28;20167;-77
2021/04/23 12:56:39;;;;;;;22.45;19.48;;;13.20;99.90;;;;;;5043454;28;20037;-77
2021/04/23 12:59:07;;;;;;;21.08;18.90;;;13.10;99.90;;;;;;5046018;28;20199;-77
2021/04/23 13:01:33;;;;;;;21.48;19.00;;;13.10;99.90;;;;;;5045442;28;20529;-77
2021/04/23 13:04:11;;;;;;;21.08;18.90;;;13.20;99.90;;;;;;5045934;28;20045;-76
2021/04/23 13:06:40;;;;;;;24.08;18.10;;;13.20;99.90;;;;;;5044982;28;20049;-77
2021/04/23 13:09:11;;;;;;;19.02;17.08;;;13.10;99.90;;;;;;5043773;28;20099;-77
2021/04/23 13:11:39;;;;;;;21.02;18.75;;;13.10;99.90;;;;;;5028372;28;20144;-77
2021/04/23 13:14:20;;;;;;;23.73;18.73;;;12.90;99.90;;;;;;5045470;28;20136;-77
2021/04/23 13:16:54;;;;;;;21.15;19.05;;;13.10;99.90;;;;;;5025212;28;20100;-77
2021/04/23 13:19:31;;;;;;;22.05;18.05;;;13.40;99.90;;;;;;5001494;28;20464;-75
2021/04/23 13:21:57;;;;;;;18.77;16.90;;;13.60;99.90;;;;;;5006527;28;20208;-75
2021/04/23 13:24:23;;;;;;;20.58;17.65;;;13.70;99.90;;;;;;5018387;28;20049;-76
2021/04/23 13:26:50;;;;;;;20.10;17.98;;;13.60;99.90;;;;;;5025408;28;20045;-76
2021/04/23 13:29:16;;;;;;;19.60;17.30;;;13.00;99.90;;;;;;5021890;28;20141;-76
2021/04/23 13:31:42;;;;;;;20.92;16.77;;;13.00;99.90;;;;;;5025904;28;20045;-77
2021/04/23 13:34:11;;;;;;;19.02;16.83;;;13.30;99.90;;;;;;5021613;28;20064;-77
2021/04/23 13:36:53;;;;;;;20.80;16.95;;;13.60;99.90;;;;;;5016483;28;20045;-76
2021/04/23 13:39:20;;;;;;;20.65;17.20;;;13.70;99.90;;;;;;5024974;28;20045;-72
2021/04/23 13:41:49;;;;;;;20.77;18.67;;;13.80;99.90;;;;;;5046977;28;20049;-75
2021/04/23 13:44:16;;;;;;;19.00;17.02;;;13.70;99.90;;;;;;5025943;28;20469;-76
2021/04/23 13:46:44;;;;;;;18.17;16.42;;;13.80;99.90;;;;;;5022075;28;20176;-73
2021/04/23 13:49:13;;;;;;;19.88;17.80;;;14.10;99.90;;;;;;5026823;28;20057;-76
2021/04/23 13:51:42;;;;;;;19.27;17.45;;;13.70;99.90;;;;;;5024874;28;20080;-76
2021/04/23 13:54:21;;;;;;;22.35;18.13;;;13.70;99.90;;;;;;5005522;28;20578;-76
2021/04/23 13:56:50;;;;;;;18.25;16.45;;;13.70;99.90;;;;;;5000742;28;20069;-75
2021/04/23 13:59:24;;;;;;;19.15;17.25;;;13.50;99.90;;;;;;5026218;28;20137;-75
2021/04/23 14:01:54;;;;;;;19.73;15.90;;;13.40;99.90;;;;;;5023849;28;20668;-75
2021/04/23 14:04:32;;;;;;;20.08;18.05;;;13.40;99.90;;;;;;5008821;28;20041;-75
2021/04/23 14:07:01;;;;;;;18.55;16.83;;;13.50;99.90;;;;;;5023086;28;20080;-75
2021/04/23 14:09:28;;;;;;;18.33;16.60;;;13.70;99.90;;;;;;5026008;28;20077;-73
2021/04/23 14:11:57;;;;;;;19.05;17.08;;;13.90;99.90;;;;;;5025144;28;20124;-75
2021/04/23 14:14:28;;;;;;;20.17;17.95;;;13.80;99.90;;;;;;5025336;28;20054;-76
2021/04/23 14:16:58;;;;;;;18.65;16.75;;;13.70;99.90;;;;;;5007912;28;20046;-76
2021/04/23 14:19:25;;;;;;;18.63;16.98;;;13.80;99.90;;;;;;5008526;28;20060;-75
2021/04/23 14:21:52;;;;;;;17.65;15.85;;;13.90;99.90;;;;;;5006203;28;20548;-75
2021/04/23 14:24:19;;;;;;;19.23;17.17;;;14.10;99.90;;;;;;5024071;28;20119;-75
2021/04/23 14:26:47;;;;;;;20.27;17.23;;;14.00;99.90;;;;;;5038173;28;20803;-75
2021/04/23 14:29:16;;;;;;;18.63;16.55;;;14.10;99.90;;;;;;5046152;28;20122;-74
2021/04/23 14:31:43;;;;;;;20.35;17.58;;;13.90;99.90;;;;;;5044608;28;20048;-75